Time;durP1;ratioP1;P1;durP2;ratioP2;P2;SDS_P1;SDS_P2;PMS_P1;PMS_P2;Temp;Humidity;BMP_temperature;BMP_pressure;BME280_temperature;BME280_humidity;BME280_pressure;Samples;Min_cycle;Max_cycle;Signal;HPM_P1;HPM_P2
2021/07/19 00:00:25;;;;;;;;;5.50;5.50;;;;;26.10;48.27;101771.00;5077716;28;45314;-85
2021/07/19 00:02:54;;;;;;;;;6.00;6.00;;;;;26.08;48.33;101764.75;5076848;28;45655;-86
2021/07/19 00:05:22;;;;;;;;;9.75;7.00;;;;;26.06;48.30;101770.09;5076596;27;45671;-86
2021/07/19 00:07:48;;;;;;;;;6.00;6.00;;;;;26.02;48.44;101764.81;5076375;27;45401;-88
2021/07/19 00:10:16;;;;;;;;;6.00;5.50;;;;;26.03;48.80;101763.94;5077441;28;45378;-86
2021/07/19 00:12:43;;;;;;;;;6.00;6.00;;;;;26.03;48.21;101763.94;5076458;28;45473;-87
2021/07/19 00:15:18;;;;;;;;;5.50;5.50;;;;;26.03;48.18;101758.63;5078178;28;45776;-86
2021/07/19 00:17:45;;;;;;;;;8.00;6.75;;;;;26.03;48.58;101761.28;5078762;28;45178;-85
2021/07/19 00:20:11;;;;;;;;;6.00;4.75;;;;;26.01;48.22;101768.34;5077073;28;45264;-87
2021/07/19 00:22:37;;;;;;;;;6.25;4.25;;;;;25.98;48.51;101757.75;5076791;28;45501;-86
2021/07/19 00:25:05;;;;;;;;;7.50;7.00;;;;;25.96;48.95;101766.63;5077924;27;45358;-87
2021/07/19 00:27:31;;;;;;;;;5.25;5.25;;;;;25.93;48.02;101768.38;5077288;28;45368;-85
2021/07/19 00:29:57;;;;;;;;;6.25;6.25;;;;;25.93;48.55;101765.72;5076835;28;45531;-86
2021/07/19 00:32:23;;;;;;;;;6.25;6.25;;;;;25.89;47.98;101764.00;5076389;28;45895;-85
2021/07/19 00:34:48;;;;;;;;;11.75;8.75;;;;;25.85;48.27;101762.22;5075512;28;45592;-85
2021/07/19 00:37:14;;;;;;;;;6.00;6.00;;;;;25.82;49.02;101760.47;5076035;28;45501;-86
2021/07/19 00:39:39;;;;;;;;;7.00;6.00;;;;;25.77;49.12;101759.59;5078862;27;45166;-86
2021/07/19 00:42:05;;;;;;;;;8.75;7.00;;;;;25.73;48.77;101768.47;5078312;28;46008;-87
2021/07/19 00:44:31;;;;;;;;;6.50;6.50;;;;;25.68;49.46;101763.19;5080110;28;45231;-86
2021/07/19 00:46:57;;;;;;;;;12.00;9.50;;;;;25.68;49.09;101762.28;5076391;28;45556;-85
2021/07/19 00:49:25;;;;;;;;;9.00;7.25;;;;;25.64;49.49;101754.34;5076634;28;45510;-89
2021/07/19 00:51:51;;;;;;;;;11.00;10.00;;;;;25.65;49.31;101761.41;5076940;28;46384;-89
2021/07/19 00:54:19;;;;;;;;;6.00;6.00;;;;;25.64;49.31;101754.34;5079099;28;45842;-91
2021/07/19 00:56:46;;;;;;;;;7.75;7.75;;;;;25.61;48.94;101757.00;5076588;27;45305;-89
2021/07/19 00:59:15;;;;;;;;;5.75;5.00;;;;;25.60;49.00;101755.25;5077772;28;45322;-88
2021/07/19 01:01:44;;;;;;;;;9.50;9.25;;;;;25.57;48.91;101752.59;5077830;28;46244;-86
2021/07/19 01:04:12;;;;;;;;;6.75;6.50;;;;;25.53;49.71;101758.81;5072990;28;45666;-90
2021/07/19 01:06:40;;;;;;;;;6.50;6.50;;;;;25.49;49.25;101749.06;5077116;28;45410;-90
2021/07/19 01:09:06;;;;;;;;;8.00;5.00;;;;;25.47;49.60;101756.16;5078023;28;45522;-90
2021/07/19 01:11:33;;;;;;;;;9.50;6.50;;;;;25.45;49.64;101752.59;5077893;28;45424;-85
2021/07/19 01:13:59;;;;;;;;;8.50;8.00;;;;;25.40;50.28;101752.63;5077637;28;45462;-91
2021/07/19 01:16:25;;;;;;;;;5.75;4.25;;;;;25.38;50.59;101753.47;5077619;28;45314;-86
2021/07/19 01:18:50;;;;;;;;;8.00;8.00;;;;;25.34;50.57;101750.84;5076860;27;45441;-86
2021/07/19 01:21:16;;;;;;;;;7.00;6.50;;;;;25.37;49.71;101754.38;5076968;27;45325;-87
2021/07/19 01:24:06;;;;;;;;;6.75;6.75;;;;;25.31;49.97;101749.97;5059440;28;45277;-87
2021/07/19 01:26:59;;;;;;;;;10.00;9.50;;;;;25.29;49.96;101746.41;5077035;28;45779;-87
2021/07/19 01:29:26;;;;;;;;;7.25;6.25;;;;;25.25;50.16;101750.84;5059044;27;45752;-90
2021/07/19 01:31:53;;;;;;;;;10.00;7.75;;;;;25.24;50.38;101753.50;5085926;28;45263;-88
2021/07/19 01:34:29;;;;;;;;;9.50;8.50;;;;;25.21;50.34;101749.09;5081491;28;45256;-91
2021/07/19 01:37:00;;;;;;;;;7.00;7.00;;;;;25.16;50.52;101749.09;5083711;28;45565;-87
2021/07/19 01:39:27;;;;;;;;;6.25;6.25;;;;;25.14;50.52;101756.19;5076407;28;45302;-85
2021/07/19 01:41:56;;;;;;;;;9.00;8.00;;;;;25.16;50.70;101751.72;5075650;28;46139;-85
2021/07/19 01:44:22;;;;;;;;;7.00;7.00;;;;;25.16;50.71;101754.38;5079877;28;45766;-86
2021/07/19 01:46:50;;;;;;;;;7.00;6.25;;;;;25.17;50.78;101753.50;5079203;28;45372;-87
2021/07/19 01:49:16;;;;;;;;;8.25;7.00;;;;;25.20;51.28;101757.94;5081375;28;45461;-89
2021/07/19 01:51:42;;;;;;;;;7.75;7.75;;;;;25.20;50.61;101763.25;5080363;27;45942;-89
2021/07/19 01:54:10;;;;;;;;;10.50;9.00;;;;;25.17;50.70;101749.97;5079421;28;45334;-90
2021/07/19 01:56:36;;;;;;;;;7.25;7.00;;;;;25.13;50.94;101745.56;5079059;28;45343;-89
2021/07/19 01:59:03;;;;;;;;;8.75;8.00;;;;;25.07;51.40;101745.56;5079616;28;45576;-85
2021/07/19 02:01:29;;;;;;;;;6.75;6.75;;;;;25.02;51.65;101749.09;5062887;28;45537;-89
2021/07/19 02:03:55;;;;;;;;;7.50;7.00;;;;;24.98;51.23;101751.75;5067019;28;45407;-87
2021/07/19 02:06:24;;;;;;;;;9.50;8.50;;;;;24.96;51.71;101751.75;5086081;27;45430;-89
2021/07/19 02:08:53;;;;;;;;;10.00;9.00;;;;;24.93;51.20;101750.88;5083417;28;45157;-86
2021/07/19 02:11:36;;;;;;;;;7.75;7.75;;;;;24.85;51.77;101741.16;5084320;27;46226;-86
2021/07/19 02:14:08;;;;;;;;;7.00;7.00;;;;;24.84;52.17;101749.97;5065928;28;45311;-86
2021/07/19 02:16:49;;;;;;;;;9.50;8.00;;;;;24.83;51.79;101752.63;5067264;28;45280;-86
2021/07/19 02:19:25;;;;;;;;;9.50;9.00;;;;;24.78;51.89;101744.69;5089403;27;45322;-86
2021/07/19 02:21:51;;;;;;;;;9.00;9.00;;;;;24.81;52.11;101749.09;5074482;28;46339;-86
2021/07/19 02:24:20;;;;;;;;;7.50;7.50;;;;;24.80;52.51;101744.69;5086291;27;45253;-85
2021/07/19 02:26:46;;;;;;;;;13.00;10.50;;;;;24.74;52.11;101732.31;5063807;28;45287;-85
2021/07/19 02:29:26;;;;;;;;;11.25;9.25;;;;;24.76;51.96;101746.44;5053542;28;45445;-87
2021/07/19 02:32:17;;;;;;;;;9.00;9.00;;;;;24.65;52.32;101740.22;5089374;27;46530;-87
2021/07/19 02:34:47;;;;;;;;;9.75;7.25;;;;;24.60;52.52;101732.28;5084738;27;45333;-90
2021/07/19 02:37:15;;;;;;;;;10.25;9.50;;;;;24.66;52.27;101750.84;5086395;27;45148;-87
2021/07/19 02:39:55;;;;;;;;;;;;;;;;;;;;;
2021/07/19 02:42:26;;;;;;;;;12.00;9.75;;;;;24.59;52.04;101749.03;5063247;28;75928;-87
2021/07/19 02:45:10;;;;;;;;;;;;;;;;;;;;;
2021/07/19 02:47:44;;;;;;;;;14.50;11.00;;;;;24.54;52.27;101740.22;5066017;28;67920;-87
2021/07/19 02:50:20;;;;;;;;;11.25;10.25;;;;;24.53;52.99;101741.97;5065562;28;45612;-86
2021/07/19 02:52:46;;;;;;;;;13.75;10.00;;;;;24.48;52.84;101738.47;5079825;27;46826;-88
2021/07/19 02:55:20;;;;;;;;;11.75;11.75;;;;;24.49;52.54;101747.25;5065259;28;46764;-86
2021/07/19 02:57:46;;;;;;;;;14.00;11.50;;;;;24.49;52.84;101750.81;5087773;28;45319;-86
2021/07/19 03:00:15;;;;;;;;;9.25;9.25;;;;;24.45;52.75;101753.44;5087311;27;45086;-85
2021/07/19 03:02:45;;;;;;;;;13.50;10.50;;;;;24.46;53.07;101752.56;5067413;28;47985;-87
2021/07/19 03:05:14;;;;;;;;;7.50;7.50;;;;;24.42;52.53;101763.16;5068586;27;45298;-86
2021/07/19 03:07:42;;;;;;;;;4.50;4.50;;;;;24.38;53.12;101766.66;5077656;27;45337;-90
2021/07/19 03:10:09;;;;;;;;;7.75;7.75;;;;;24.32;52.87;101745.47;5078881;28;45582;-90
2021/07/19 03:12:37;;;;;;;;;11.75;10.75;;;;;24.35;52.87;101748.13;5083445;28;46196;-90
2021/07/19 03:15:09;;;;;;;;;10.50;9.00;;;;;24.38;53.12;101755.19;5085889;27;45400;-88
2021/07/19 03:17:39;;;;;;;;;10.50;10.00;;;;;24.37;53.00;101750.78;5079961;27;45224;-84
2021/07/19 03:20:07;;;;;;;;;10.50;9.00;;;;;24.32;52.99;101753.41;5080001;28;45342;-84
2021/07/19 03:22:38;;;;;;;;;10.50;8.25;;;;;24.34;52.99;101756.06;5063536;28;46967;-87
2021/07/19 03:25:06;;;;;;;;;11.75;9.50;;;;;24.33;53.04;101755.19;5083287;28;45806;-87
2021/07/19 03:27:32;;;;;;;;;9.75;9.75;;;;;24.26;52.91;101743.69;5080989;28;45425;-85
2021/07/19 03:29:59;;;;;;;;;10.25;9.25;;;;;24.25;53.35;101747.22;5078180;28;45339;-87
2021/07/19 03:32:25;;;;;;;;;10.50;8.75;;;;;24.25;53.21;101741.94;5077737;28;45434;-88
2021/07/19 03:34:52;;;;;;;;;10.50;8.50;;;;;24.23;53.28;101746.34;5077882;28;45650;-88
2021/07/19 03:37:21;;;;;;;;;8.75;8.75;;;;;24.21;53.13;101736.63;5077424;28;45355;-87
2021/07/19 03:39:47;;;;;;;;;9.75;9.75;;;;;24.18;53.56;101736.59;5077934;27;45397;-89
2021/07/19 03:42:14;;;;;;;;;13.00;11.00;;;;;24.16;53.07;101741.00;5061383;28;46818;-88
2021/07/19 03:44:40;;;;;;;;;10.00;9.00;;;;;24.14;53.41;101741.00;5080390;28;45303;-88
2021/07/19 03:47:10;;;;;;;;;9.75;9.75;;;;;24.09;53.81;101738.34;5081142;27;45241;-87
2021/07/19 03:49:37;;;;;;;;;9.00;9.00;;;;;24.09;53.76;101741.00;5082183;27;45498;-88
2021/07/19 03:52:04;;;;;;;;;8.25;8.00;;;;;24.08;53.60;101733.94;5083159;28;45449;-87
2021/07/19 03:54:29;;;;;;;;;9.50;9.50;;;;;24.07;53.89;101733.94;5063949;28;45662;-86
2021/07/19 03:56:56;;;;;;;;;9.75;9.75;;;;;24.02;53.69;101740.97;5080849;28;45332;-88
2021/07/19 03:59:24;;;;;;;;;9.50;9.50;;;;;23.98;53.83;101729.50;5078107;28;45477;-86
2021/07/19 04:01:51;;;;;;;;;11.75;9.75;;;;;23.98;53.63;101734.78;5078244;28;45438;-89
2021/07/19 04:04:29;;;;;;;;;11.00;9.50;;;;;23.93;53.81;101728.53;5076829;28;45335;-87
2021/07/19 04:06:57;;;;;;;;;9.00;9.00;;;;;23.92;54.17;101734.72;5075919;28;45562;-88
2021/07/19 04:09:23;;;;;;;;;8.25;7.75;;;;;23.86;54.28;101727.66;5078191;28;45598;-88
2021/07/19 04:11:50;;;;;;;;;9.00;8.25;;;;;23.87;54.26;101729.41;5078534;27;46211;-88
2021/07/19 04:14:17;;;;;;;;;9.75;9.25;;;;;23.87;54.43;101733.81;5078651;28;45859;-88
2021/07/19 04:16:43;;;;;;;;;10.50;9.00;;;;;23.84;53.93;101732.06;5078368;28;45258;-89
2021/07/19 04:19:13;;;;;;;;;12.50;11.50;;;;;23.83;54.38;101737.31;5079535;27;45166;-86
2021/07/19 04:21:39;;;;;;;;;11.75;9.00;;;;;23.85;53.80;101735.56;5081824;28;45669;-87
2021/07/19 04:24:06;;;;;;;;;9.50;8.50;;;;;23.85;54.05;101739.13;5062704;28;45377;-87
2021/07/19 04:26:33;;;;;;;;;11.50;10.25;;;;;23.84;53.84;101737.34;5081106;28;45382;-87
2021/07/19 04:29:04;;;;;;;;;10.00;9.25;;;;;23.77;53.99;101732.88;5084800;28;45335;-91
2021/07/19 04:31:32;;;;;;;;;10.00;8.25;;;;;23.75;54.16;101745.25;5094950;28;46149;-85
2021/07/19 04:33:58;;;;;;;;;9.50;9.50;;;;;23.77;54.40;101757.59;5097594;28;45145;-89
2021/07/19 04:36:23;;;;;;;;;10.50;9.00;;;;;23.76;54.17;101739.06;5087145;28;45351;-87
2021/07/19 04:38:50;;;;;;;;;9.75;8.25;;;;;23.70;54.29;101739.03;5092822;28;45240;-88
2021/07/19 04:41:18;;;;;;;;;10.00;9.00;;;;;23.72;54.32;101737.28;5062975;28;47467;-89
2021/07/19 04:43:44;;;;;;;;;11.50;11.00;;;;;23.73;54.52;101739.06;5063909;28;45534;-87
2021/07/19 04:46:10;;;;;;;;;8.00;8.00;;;;;23.70;54.37;101733.75;5083333;28;45485;-88
2021/07/19 04:48:36;;;;;;;;;14.00;12.75;;;;;23.70;54.58;101744.31;5080427;28;45315;-90
2021/07/19 04:51:02;;;;;;;;;12.00;10.50;;;;;23.68;54.20;101730.22;5057870;28;46813;-84
2021/07/19 04:53:28;;;;;;;;;10.75;9.75;;;;;23.69;54.60;101746.09;5076288;28;45516;-85
2021/07/19 04:55:58;;;;;;;;;11.75;10.75;;;;;23.75;54.38;101739.97;5075887;27;45484;-85
2021/07/19 04:58:26;;;;;;;;;11.75;10.25;;;;;23.74;54.44;101736.41;5076392;28;45467;-85
2021/07/19 05:00:58;;;;;;;;;11.25;10.75;;;;;23.71;54.41;101733.75;5078338;28;45539;-89
2021/07/19 05:03:26;;;;;;;;;12.00;9.50;;;;;23.69;54.24;101730.22;5085598;27;45837;-86
2021/07/19 05:05:53;;;;;;;;;12.50;9.50;;;;;23.70;54.57;101737.28;5076284;28;45422;-87
2021/07/19 05:08:21;;;;;;;;;13.25;11.00;;;;;23.65;54.63;101736.38;5076718;28;45562;-88
2021/07/19 05:10:49;;;;;;;;;11.00;11.00;;;;;23.63;54.36;101743.41;5077842;27;46199;-86
2021/07/19 05:13:15;;;;;;;;;12.25;12.00;;;;;23.64;54.36;101745.19;5081639;28;45478;-86
2021/07/19 05:15:42;;;;;;;;;10.25;9.50;;;;;23.63;54.52;101744.31;5081155;28;45461;-87
2021/07/19 05:18:09;;;;;;;;;10.25;8.75;;;;;23.61;54.83;101745.16;5079900;28;45270;-84
2021/07/19 05:20:36;;;;;;;;;12.25;9.50;;;;;23.63;54.50;101753.97;5095860;27;46855;-88
2021/07/19 05:23:03;;;;;;;;;15.00;12.75;;;;;23.63;54.36;101757.53;5078528;28;45541;-87
2021/07/19 05:25:32;;;;;;;;;10.50;10.25;;;;;23.65;54.90;101754.88;5079688;28;45473;-88
2021/07/19 05:28:11;;;;;;;;;11.75;11.75;;;;;23.63;54.83;101756.63;5079820;28;45214;-86
2021/07/19 05:30:39;;;;;;;;;11.25;9.50;;;;;23.61;54.85;101751.34;5059983;28;45851;-88
2021/07/19 05:33:05;;;;;;;;;13.75;12.00;;;;;23.64;54.70;101754.00;5078533;27;45437;-86
2021/07/19 05:35:31;;;;;;;;;12.25;10.75;;;;;23.65;54.71;101757.53;5078916;28;45343;-88
2021/07/19 05:37:57;;;;;;;;;13.75;12.00;;;;;23.69;54.67;101758.41;5080969;27;45458;-87
2021/07/19 05:40:23;;;;;;;;;17.00;11.00;;;;;23.72;54.63;101761.09;5081872;28;46345;-87
2021/07/19 05:42:49;;;;;;;;;16.50;13.75;;;;;23.70;54.76;101755.81;5062809;28;45725;-87
2021/07/19 05:45:16;;;;;;;;;11.00;11.00;;;;;23.72;55.27;101753.16;5083209;28;45242;-87
2021/07/19 05:47:42;;;;;;;;;17.00;11.75;;;;;23.72;54.59;101755.78;5084891;27;45272;-89
2021/07/19 05:50:08;;;;;;;;;12.00;10.25;;;;;23.71;54.59;101752.25;5082112;27;45525;-86
2021/07/19 05:52:35;;;;;;;;;15.50;13.50;;;;;23.76;54.91;101755.81;5079643;27;45797;-87
2021/07/19 05:55:05;;;;;;;;;12.75;11.00;;;;;23.79;54.63;101747.91;5080699;28;45430;-83
2021/07/19 05:57:31;;;;;;;;;15.50;13.25;;;;;23.81;54.63;101754.06;5084934;27;45374;-95
2021/07/19 05:59:58;;;;;;;;;14.25;12.75;;;;;23.83;54.78;101755.84;5086767;28;45710;-91
2021/07/19 06:02:25;;;;;;;;;11.25;11.25;;;;;23.86;54.95;101756.75;5061583;28;45090;-91
2021/07/19 06:04:50;;;;;;;;;13.50;12.50;;;;;23.89;54.39;101756.75;5081674;27;45442;-88
2021/07/19 06:07:16;;;;;;;;;12.25;11.25;;;;;23.91;54.72;101751.50;5087335;28;45427;-93
2021/07/19 06:09:42;;;;;;;;;13.75;12.25;;;;;23.87;54.60;101749.69;5067512;28;47184;-86
2021/07/19 06:12:08;;;;;;;;;15.00;11.00;;;;;23.86;54.82;101745.28;5079536;28;45244;-87
2021/07/19 06:14:34;;;;;;;;;12.50;11.25;;;;;23.91;54.47;101754.13;5078814;28;45442;-85
2021/07/19 06:17:00;;;;;;;;;13.00;13.00;;;;;23.93;54.90;101753.25;5087346;27;45169;-85
2021/07/19 06:19:25;;;;;;;;;11.75;11.00;;;;;23.98;54.80;101750.66;5080797;28;45351;-87
2021/07/19 06:21:51;;;;;;;;;13.00;12.75;;;;;24.01;54.44;101750.69;5079948;27;45264;-84
2021/07/19 06:24:17;;;;;;;;;15.00;13.00;;;;;24.01;54.75;101748.03;5078769;28;45375;-88
2021/07/19 06:26:42;;;;;;;;;12.75;11.75;;;;;24.06;54.54;101745.41;5079383;28;45587;-86
2021/07/19 06:29:08;;;;;;;;;10.50;10.50;;;;;24.10;54.60;101750.72;5079270;27;45681;-84
2021/07/19 06:31:33;;;;;;;;;17.00;10.50;;;;;24.14;54.09;101748.94;5081531;27;45498;-82
2021/07/19 06:33:59;;;;;;;;;14.25;13.00;;;;;24.15;54.23;101747.19;5066106;28;45443;-90
2021/07/19 06:36:25;;;;;;;;;10.50;10.50;;;;;24.12;54.03;101748.06;5063164;28;45412;-80
2021/07/19 06:38:51;;;;;;;;;11.00;11.00;;;;;24.15;54.17;101740.13;5074657;27;46208;-82
2021/07/19 06:41:16;;;;;;;;;14.00;10.25;;;;;24.16;54.49;101741.00;5077836;27;45604;-82
2021/07/19 06:43:42;;;;;;;;;10.25;10.25;;;;;24.13;54.49;101749.81;5077041;28;45387;-83
2021/07/19 06:46:07;;;;;;;;;12.25;12.25;;;;;24.15;54.78;101748.06;5076309;28;45473;-86
2021/07/19 06:48:35;;;;;;;;;13.50;12.50;;;;;24.16;54.24;101743.66;5077793;28;45768;-83
2021/07/19 06:51:02;;;;;;;;;12.00;11.25;;;;;24.18;54.71;101745.44;5078415;27;45635;-80
2021/07/19 06:53:29;;;;;;;;;13.00;11.25;;;;;24.20;54.59;101741.03;5078492;27;45466;-80
2021/07/19 06:55:54;;;;;;;;;10.50;9.00;;;;;24.21;54.44;101736.63;5077344;28;45600;-81
2021/07/19 06:58:20;;;;;;;;;10.50;10.00;;;;;24.23;53.92;101738.41;5078043;28;45486;-80
2021/07/19 07:00:46;;;;;;;;;14.00;11.00;;;;;24.25;54.11;101738.38;5077508;27;45343;-81
2021/07/19 07:03:11;;;;;;;;;11.25;10.25;;;;;24.27;54.52;101736.63;5059848;28;45391;-80
2021/07/19 07:05:37;;;;;;;;;11.00;11.00;;;;;24.27;54.32;101745.47;5077912;27;45557;-80
2021/07/19 07:08:03;;;;;;;;;11.00;10.50;;;;;24.29;53.80;101744.59;5077420;27;45491;-81
2021/07/19 07:10:29;;;;;;;;;12.25;12.25;;;;;24.27;54.05;101745.47;5076383;27;45712;-80
2021/07/19 07:12:55;;;;;;;;;12.50;10.25;;;;;24.27;54.26;101742.81;5077430;27;45325;-80
2021/07/19 07:15:21;;;;;;;;;12.25;11.25;;;;;24.30;54.02;101747.22;5077959;28;45632;-80
2021/07/19 07:17:50;;;;;;;;;13.75;11.50;;;;;24.33;53.91;101743.69;5077322;28;46140;-80
2021/07/19 07:20:16;;;;;;;;;13.00;12.25;;;;;24.35;53.89;101742.81;5077374;27;45751;-80
2021/07/19 07:22:42;;;;;;;;;10.75;10.75;;;;;24.35;53.91;101739.31;5059154;28;45428;-80
2021/07/19 07:25:09;;;;;;;;;13.75;11.75;;;;;24.34;53.64;101737.53;5077589;28;45596;-79
2021/07/19 07:27:36;;;;;;;;;14.00;12.00;;;;;24.34;54.23;101734.88;5076952;27;45630;-79
2021/07/19 07:30:08;;;;;;;;;13.25;11.50;;;;;24.33;53.86;101741.97;5080650;27;45752;-80
2021/07/19 07:32:37;;;;;;;;;15.00;11.00;;;;;24.36;54.48;101747.22;5045296;28;45356;-80
2021/07/19 07:35:04;;;;;;;;;14.25;13.00;;;;;24.40;54.53;101746.38;5077757;28;45415;-80
2021/07/19 07:37:35;;;;;;;;;13.00;12.00;;;;;24.41;54.11;101744.59;5077416;28;46257;-80
2021/07/19 07:40:05;;;;;;;;;13.00;10.00;;;;;24.44;53.80;101744.63;5078578;28;45882;-78
2021/07/19 07:42:32;;;;;;;;;12.50;9.00;;;;;24.51;54.31;101748.16;5084485;28;45397;-80
2021/07/19 07:44:59;;;;;;;;;14.00;12.25;;;;;24.55;53.16;101742.00;5077777;28;45177;-80
2021/07/19 07:47:25;;;;;;;;;15.00;11.25;;;;;24.61;53.40;101736.69;5077024;27;46428;-80
2021/07/19 07:49:52;;;;;;;;;12.75;11.75;;;;;24.65;53.13;101738.47;5076743;28;45248;-80
2021/07/19 07:52:18;;;;;;;;;13.50;11.50;;;;;24.68;53.51;101741.16;5077199;28;45330;-81
2021/07/19 07:54:44;;;;;;;;;12.00;8.75;;;;;24.74;52.31;101729.66;5077892;28;45428;-80
2021/07/19 07:57:10;;;;;;;;;11.50;11.50;;;;;24.77;52.39;101729.69;5076813;28;45473;-81
2021/07/19 07:59:37;;;;;;;;;13.00;12.50;;;;;24.81;52.04;101728.81;5076875;28;45631;-80
2021/07/19 08:02:05;;;;;;;;;10.25;10.25;;;;;24.85;52.03;101730.56;5077461;27;45414;-80
2021/07/19 08:04:31;;;;;;;;;11.75;9.75;;;;;24.90;51.57;101724.38;5079541;27;45590;-81
2021/07/19 08:06:58;;;;;;;;;10.00;9.00;;;;;24.94;50.97;101723.50;5077182;28;46783;-81
2021/07/19 08:09:24;;;;;;;;;13.25;8.75;;;;;24.98;51.30;101722.59;5076877;27;45442;-81
2021/07/19 08:11:50;;;;;;;;;9.00;8.75;;;;;25.02;51.14;101727.03;5058584;28;45500;-82
2021/07/19 08:14:15;;;;;;;;;11.25;10.00;;;;;25.06;50.49;101720.81;5077241;28;45558;-81
2021/07/19 08:16:41;;;;;;;;;10.50;9.25;;;;;25.10;50.91;101721.72;5076369;28;46041;-81
2021/07/19 08:19:08;;;;;;;;;9.25;9.00;;;;;25.14;50.12;101720.81;5076767;28;45400;-81
2021/07/19 08:21:35;;;;;;;;;11.00;9.25;;;;;25.18;50.87;101720.81;5076905;28;45287;-80
2021/07/19 08:24:01;;;;;;;;;9.50;9.00;;;;;25.22;49.52;101720.81;5077283;27;45500;-81
2021/07/19 08:26:27;;;;;;;;;9.00;9.00;;;;;25.24;50.10;101716.41;5075659;27;47510;-81
2021/07/19 08:28:55;;;;;;;;;9.25;9.00;;;;;25.29;50.06;101711.97;5076267;28;45400;-81
2021/07/19 08:31:25;;;;;;;;;10.75;8.25;;;;;25.34;49.78;101710.19;5076502;28;45330;-81
2021/07/19 08:33:51;;;;;;;;;7.00;7.00;;;;;25.37;49.92;101710.19;5076730;28;45184;-81
2021/07/19 08:36:17;;;;;;;;;11.50;10.50;;;;;25.41;49.90;101714.63;5076267;27;45375;-80
2021/07/19 08:38:42;;;;;;;;;6.50;5.75;;;;;25.45;49.02;101715.50;5076080;27;45249;-82
2021/07/19 08:41:08;;;;;;;;;12.75;9.00;;;;;25.47;48.94;101714.63;5076554;28;45452;-82
2021/07/19 08:43:39;;;;;;;;;10.00;7.75;;;;;25.50;49.63;101716.38;5076803;27;45432;-82
2021/07/19 08:46:05;;;;;;;;;10.25;9.00;;;;;25.54;49.45;101720.75;5076361;28;46217;-81
2021/07/19 08:48:32;;;;;;;;;9.00;8.75;;;;;25.58;49.26;101717.22;5077338;28;45898;-82
2021/07/19 08:51:01;;;;;;;;;10.00;8.50;;;;;25.60;48.09;101715.47;5077094;27;45557;-81
2021/07/19 08:53:28;;;;;;;;;9.00;8.25;;;;;25.65;48.39;101710.13;5076770;27;45382;-81
2021/07/19 08:55:56;;;;;;;;;9.25;9.25;;;;;25.68;48.79;101710.13;5075531;28;46250;-81
2021/07/19 08:58:23;;;;;;;;;14.75;10.00;;;;;25.73;48.34;101715.41;5076165;28;45343;-81
2021/07/19 09:00:52;;;;;;;;;8.75;7.25;;;;;25.76;48.27;101712.72;5076081;27;45449;-82
2021/07/19 09:03:17;;;;;;;;;8.50;7.00;;;;;25.78;47.75;101705.66;5076536;28;46060;-81
2021/07/19 09:05:43;;;;;;;;;7.50;7.00;;;;;25.82;47.02;101707.41;5057526;27;46630;-82
2021/07/19 09:08:09;;;;;;;;;6.00;5.50;;;;;25.84;46.91;101704.75;5076065;28;45288;-82
2021/07/19 09:10:35;;;;;;;;;10.25;9.75;;;;;25.87;47.02;101702.09;5075984;28;45248;-82
2021/07/19 09:13:01;;;;;;;;;8.50;6.25;;;;;25.90;46.40;101700.28;5076807;28;45242;-82
2021/07/19 09:15:33;;;;;;;;;7.50;7.50;;;;;25.94;46.63;101709.13;5077469;28;45275;-82
2021/07/19 09:17:59;;;;;;;;;7.00;6.75;;;;;25.95;46.85;101703.81;5076523;28;45621;-82
2021/07/19 09:20:35;;;;;;;;;10.75;8.75;;;;;25.99;46.56;101709.09;5057697;27;45352;-82
2021/07/19 09:23:01;;;;;;;;;7.75;6.75;;;;;26.00;46.84;101706.44;5076561;28;45593;-82
2021/07/19 09:25:27;;;;;;;;;8.00;7.00;;;;;26.02;47.10;101695.81;5076004;28;45371;-81
2021/07/19 09:28:04;;;;;;;;;7.00;6.50;;;;;26.05;47.53;101696.66;5075448;28;45470;-82
2021/07/19 09:30:32;;;;;;;;;9.50;7.00;;;;;26.07;46.51;101699.34;5076119;28;45413;-82
2021/07/19 09:33:00;;;;;;;;;7.25;7.00;;;;;26.11;46.29;101698.44;5076371;28;45201;-83
2021/07/19 09:35:26;;;;;;;;;7.50;5.25;;;;;26.15;46.51;101704.59;5075569;28;46165;-82
2021/07/19 09:37:52;;;;;;;;;7.00;7.00;;;;;26.17;46.34;101700.19;5075437;28;45626;-83
2021/07/19 09:40:24;;;;;;;;;9.00;6.50;;;;;26.20;46.17;101693.06;5076073;28;45519;-83
2021/07/19 09:42:51;;;;;;;;;10.75;8.50;;;;;26.23;46.74;101698.38;5077175;27;45242;-83
2021/07/19 09:45:29;;;;;;;;;9.25;6.50;;;;;26.24;47.04;101689.53;5076592;27;46083;-82
2021/07/19 09:48:03;;;;;;;;;8.25;6.00;;;;;26.25;46.65;101688.63;5076070;28;45328;-82
2021/07/19 09:50:44;;;;;;;;;8.00;7.00;;;;;26.29;46.15;101685.97;5076148;27;45340;-82
2021/07/19 09:53:10;;;;;;;;;8.00;6.00;;;;;26.31;46.72;101685.06;5057506;28;45473;-83
2021/07/19 09:55:36;;;;;;;;;7.50;7.50;;;;;26.32;46.34;101678.84;5075024;27;45514;-82
2021/07/19 09:58:03;;;;;;;;;8.50;7.75;;;;;26.38;46.18;101680.59;5075657;28;45414;-82
2021/07/19 10:00:30;;;;;;;;;9.00;8.00;;;;;26.38;47.00;101673.47;5075865;28;45362;-82
2021/07/19 10:02:56;;;;;;;;;9.50;7.25;;;;;26.42;46.58;101677.00;5075487;28;45311;-83
2021/07/19 10:05:27;;;;;;;;;10.75;10.25;;;;;26.44;45.76;101672.56;5078408;28;45401;-83
2021/07/19 10:07:54;;;;;;;;;8.00;8.00;;;;;26.47;45.99;101674.31;5078609;27;45837;-82
2021/07/19 10:10:33;;;;;;;;;7.25;6.25;;;;;26.51;45.30;101674.25;5078684;27;45275;-82
2021/07/19 10:13:01;;;;;;;;;7.00;7.00;;;;;26.55;45.76;101675.16;5079393;27;45207;-82
2021/07/19 10:15:28;;;;;;;;;8.75;7.00;;;;;26.57;46.01;101671.56;5078994;28;46223;-82
2021/07/19 10:17:55;;;;;;;;;11.25;9.00;;;;;26.60;45.12;101675.97;5078254;27;45769;-83
2021/07/19 10:20:21;;;;;;;;;7.75;7.75;;;;;26.61;44.97;101672.44;5078475;28;45383;-83
2021/07/19 10:22:46;;;;;;;;;10.75;7.25;;;;;26.64;45.05;101668.84;5078309;27;45601;-82
2021/07/19 10:25:12;;;;;;;;;10.25;9.00;;;;;26.67;45.73;101674.16;5078222;27;45395;-82
2021/07/19 10:27:39;;;;;;;;;10.75;10.25;;;;;26.70;45.68;101663.50;5078110;27;45358;-82
2021/07/19 10:30:07;;;;;;;;;20.00;18.50;;;;;26.73;45.34;101674.09;5078338;28;45312;-82
2021/07/19 10:32:35;;;;;;;;;30.50;26.50;;;;;26.76;45.41;101671.41;5078394;27;45366;-82
2021/07/19 10:35:00;;;;;;;;;29.00;24.00;;;;;26.80;45.35;101673.19;5078472;28;45349;-82
2021/07/19 10:37:32;;;;;;;;;18.00;15.75;;;;;26.86;44.82;101673.13;5079866;28;45397;-83
2021/07/19 10:39:59;;;;;;;;;11.50;8.75;;;;;26.93;44.74;101667.75;5078860;28;45331;-83
2021/07/19 10:42:36;;;;;;;;;8.25;7.75;;;;;26.96;44.74;101665.03;5078878;28;45580;-83
2021/07/19 10:45:13;;;;;;;;;11.25;10.25;;;;;26.98;44.43;101663.25;5078297;28;45441;-83
2021/07/19 10:47:52;;;;;;;;;8.00;7.00;;;;;27.02;44.35;101659.69;5078245;27;45804;-83
2021/07/19 10:50:25;;;;;;;;;10.75;9.50;;;;;27.06;44.74;101664.06;5078467;27;45467;-82
2021/07/19 10:52:52;;;;;;;;;7.25;7.00;;;;;27.10;44.81;101660.47;5078139;28;45488;-83
2021/07/19 10:55:32;;;;;;;;;9.50;9.00;;;;;27.13;44.71;101663.13;5060027;28;45706;-83
2021/07/19 10:58:04;;;;;;;;;9.50;7.50;;;;;27.16;43.82;101660.41;5078502;28;45321;-82
2021/07/19 11:00:41;;;;;;;;;9.25;9.25;;;;;27.19;43.74;101651.53;5078108;27;45309;-82
2021/07/19 11:03:11;;;;;;;;;7.50;7.50;;;;;27.21;43.49;101647.09;5078614;28;45507;-82
2021/07/19 11:05:40;;;;;;;;;12.00;7.75;;;;;27.24;43.67;101641.72;5077855;28;46107;-82
2021/07/19 11:08:07;;;;;;;;;8.50;8.00;;;;;27.26;43.77;101655.88;5077908;27;45818;-82
2021/07/19 11:10:45;;;;;;;;;9.25;8.75;;;;;27.29;43.56;101645.22;5077552;28;45319;-82
2021/07/19 11:13:11;;;;;;;;;11.00;10.00;;;;;27.33;43.64;101652.22;5078130;27;45396;-82
2021/07/19 11:15:38;;;;;;;;;8.25;8.25;;;;;27.38;43.28;101653.97;5077435;28;46108;-82
2021/07/19 11:18:18;;;;;;;;;9.50;8.00;;;;;27.41;42.67;101649.50;5077862;27;45697;-82
2021/07/19 11:20:47;;;;;;;;;8.75;8.25;;;;;27.46;43.13;101653.03;5079991;28;45291;-82
2021/07/19 11:23:13;;;;;;;;;11.00;9.50;;;;;27.48;43.03;101648.53;5078238;28;45436;-82
2021/07/19 11:25:43;;;;;;;;;11.25;9.25;;;;;27.52;42.80;101644.09;5059094;28;46329;-82